^^
Datos históricos de la estación: Murcia-Puente Tocinos
Diario Informe para Junio 20, 2019 Unidades:  Métrico    Ingés   Ambas
Diario Semanal Mensual Anual
  Máxima: Mínima: Promedio:
Temperatura: 16.3 °C 6.8 °C 11.3 °C
Punto de rocio: 10 °C 3.2 °C 6.1 °C
Humedad: 88% 50.6% 72%
Velocidad viento: 10.3km/h 0km/h 4.9km/h
Racha viento: 20.9km/h - -
Viento- - Sur
Presión: 1014.4 hPa 1008.3 hPa -
Precipitación: 0.3 mm    
 
 
Tabla de datos para Junio 20, 2019
Hora Temperatura Punto de rocio Presión Viento Velocidad viento Racha viento Humedad Intensidad lluvia(por hora) Nubes
00:04 10.3 °C 6.6 °C 1014.4 hPa SSE 4.5 km/h 9.3 km/h 78.1% 0.0 mm
00:09 10.1 °C 6.6 °C 1014.4 hPa Sur 5 km/h 9.7 km/h 79% 0.0 mm
00:14 10 °C 6.6 °C 1014.4 hPa SSE 5.8 km/h 10 km/h 79.3% 0.0 mm
00:19 9.9 °C 6.6 °C 1014.4 hPa SE 6.5 km/h 9.7 km/h 79.8% 0.0 mm
00:24 9.8 °C 6.5 °C 1014.4 hPa Sur 6.5 km/h 9.7 km/h 80% 0.0 mm
00:29 9.7 °C 6.6 °C 1014.4 hPa SSO 6.5 km/h 9.7 km/h 80.9% 0.0 mm
00:34 9.7 °C 6.6 °C 1014.4 hPa SSO 5.5 km/h 8 km/h 81% 0.0 mm
00:39 9.6 °C 6.5 °C 1014.4 hPa Sur 4.6 km/h 7.4 km/h 81% 0.0 mm
00:44 9.6 °C 6.5 °C 1014.4 hPa Sur 4.6 km/h 8 km/h 81% 0.0 mm
00:49 9.6 °C 6.5 °C 1014.4 hPa Sur 4.6 km/h 8 km/h 81% 0.0 mm
00:54 9.5 °C 6.4 °C 1014.4 hPa SSE 4.6 km/h 8 km/h 81.3% 0.0 mm
00:59 9.4 °C 6.5 °C 1014.4 hPa Sur 4.7 km/h 9.5 km/h 82% 0.0 mm
01:04 9.3 °C 6.4 °C 1014.4 hPa SSO 4.8 km/h 9.7 km/h 82% 0.0 mm
01:09 9.3 °C 6.4 °C 1014.4 hPa SSO 5 km/h 8 km/h 82% 0.0 mm
01:14 9.3 °C 6.3 °C 1014.2 hPa SSE 4.8 km/h 10 km/h 81.5% 0.0 mm
01:19 9.3 °C 6.3 °C 1014.2 hPa Sur 4.6 km/h 11.1 km/h 81.2% 0.0 mm
01:24 9.3 °C 6.2 °C 1014.2 hPa SSE 5.5 km/h 11.3 km/h 81% 0.0 mm
01:29 9.2 °C 6.1 °C 1014.0 hPa Sur 5.8 km/h 9.7 km/h 81% 0.0 mm
01:34 9.1 °C 5.9 °C 1014.0 hPa Sur 5.2 km/h 9.7 km/h 80.1% 0.0 mm
01:39 9.1 °C 5.8 °C 1014.0 hPa Sur 5 km/h 8.4 km/h 80% 0.0 mm
01:44 9.1 °C 5.8 °C 1014.0 hPa SSE 5 km/h 7.4 km/h 80% 0.0 mm
01:49 9.1 °C 5.8 °C 1014.0 hPa Sur 5 km/h 8 km/h 80% 0.0 mm
01:54 9 °C 5.5 °C 1014.0 hPa Sur 4.8 km/h 8 km/h 79.1% 0.0 mm
01:59 8.9 °C 5.4 °C 1013.7 hPa SSO 4.7 km/h 8 km/h 79% 0.0 mm
02:04 8.9 °C 5.4 °C 1013.7 hPa Sur 4.7 km/h 8 km/h 79% 0.0 mm
02:09 8.9 °C 5.3 °C 1013.7 hPa Sur 4.7 km/h 8.4 km/h 78.2% 0.0 mm
02:14 8.9 °C 5.3 °C 1013.6 hPa SSO 5.4 km/h 8 km/h 78.3% 0.0 mm
02:19 8.9 °C 5.4 °C 1013.6 hPa SSO 5.8 km/h 8 km/h 79% 0.0 mm
02:24 8.9 °C 5.4 °C 1013.6 hPa SSO 4 km/h 8 km/h 79% 0.0 mm
02:29 8.9 °C 5.4 °C 1013.6 hPa SSO 3.2 km/h 4.7 km/h 79% 0.0 mm
02:34 8.9 °C 5.3 °C 1013.6 hPa SSO 2.6 km/h 5.6 km/h 78.3% 0.0 mm
02:39 8.9 °C 5.3 °C 1013.6 hPa SSO 2.2 km/h 5.8 km/h 78% 0.0 mm
02:44 8.9 °C 5.3 °C 1013.4 hPa SO 2.7 km/h 7.4 km/h 78% 0.0 mm
02:49 8.9 °C 5.3 °C 1013.4 hPa SSO 2.9 km/h 8 km/h 78% 0.0 mm
02:54 8.9 °C 5.4 °C 1013.4 hPa SE 3.6 km/h 8 km/h 78.6% 0.0 mm
02:59 8.9 °C 5.4 °C 1013.4 hPa SE 3.9 km/h 8 km/h 79% 0.0 mm
03:04 8.8 °C 5.4 °C 1013.4 hPa SSE 4.4 km/h 8 km/h 79.3% 0.0 mm
03:09 8.7 °C 5.5 °C 1013.4 hPa SSE 4.7 km/h 9.5 km/h 80% 0.0 mm
03:14 8.5 °C 5.2 °C 1013.3 hPa SSE 4.9 km/h 11.1 km/h 80.1% 0.0 mm
03:19 8.2 °C 5.1 °C 1013.3 hPa SSE 5 km/h 11.9 km/h 81.1% 0.0 mm
03:24 7.9 °C 5.1 °C 1013.3 hPa SSE 6.8 km/h 11.3 km/h 82% 0.0 mm
03:29 7.8 °C 5.1 °C 1013.2 hPa SE 7.6 km/h 9.7 km/h 82.8% 0.0 mm
03:34 7.8 °C 5.1 °C 1013.2 hPa SE 6.8 km/h 9.7 km/h 83% 0.0 mm
03:39 7.7 °C 5 °C 1013.2 hPa SSE 6.5 km/h 10 km/h 83% 0.0 mm
03:44 7.6 °C 5 °C 1013.2 hPa SSE 6.8 km/h 10 km/h 83.6% 0.0 mm
03:49 7.6 °C 5.1 °C 1013.2 hPa SSE 6.9 km/h 9.7 km/h 84% 0.0 mm
03:54 7.6 °C 5.1 °C 1013.2 hPa SSE 6.2 km/h 9.7 km/h 84% 0.0 mm
03:59 7.6 °C 5 °C 1013.0 hPa Sur 5.8 km/h 9.3 km/h 83.6% 0.0 mm
04:04 7.7 °C 5 °C 1013.0 hPa Sur 5.8 km/h 9.7 km/h 83% 0.0 mm
04:09 7.7 °C 5 °C 1013.0 hPa Sur 5.8 km/h 9.3 km/h 83% 0.0 mm
04:14 7.7 °C 5 °C 1012.8 hPa Sur 5.8 km/h 11.1 km/h 82.7% 0.0 mm
04:19 7.8 °C 4.9 °C 1012.8 hPa Sur 5.8 km/h 11.3 km/h 82% 0.0 mm
04:24 7.8 °C 4.9 °C 1012.8 hPa Sur 5.8 km/h 9.7 km/h 81.8% 0.0 mm
04:29 7.9 °C 4.8 °C 1012.8 hPa Sur 5.8 km/h 10.3 km/h 81% 0.0 mm
04:34 7.9 °C 4.8 °C 1012.8 hPa SSO 6.6 km/h 13 km/h 80.8% 0.0 mm
04:39 7.9 °C 4.7 °C 1012.8 hPa Sur 6.9 km/h 13 km/h 80% 0.0 mm
04:44 7.9 °C 4.7 °C 1012.5 hPa Sur 7.9 km/h 12.9 km/h 80% 0.0 mm
04:49 7.9 °C 4.7 °C 1012.5 hPa Sur 8.4 km/h 11.3 km/h 80% 0.0 mm
04:54 7.8 °C 4.6 °C 1012.5 hPa SSE 7.8 km/h 13 km/h 80% 0.0 mm
04:59 7.8 °C 4.6 °C 1012.5 hPa Sur 7.6 km/h 12.9 km/h 80% 0.0 mm
05:04 7.8 °C 4.6 °C 1012.5 hPa Sur 7.6 km/h 12.2 km/h 80% 0.0 mm
05:09 7.7 °C 4.5 °C 1012.5 hPa SSO 7.6 km/h 13 km/h 79.8% 0.0 mm
05:14 7.7 °C 4.3 °C 1012.5 hPa SSO 8.1 km/h 12.9 km/h 79% 0.0 mm
05:19 7.8 °C 4.4 °C 1012.5 hPa SSO 8.4 km/h 11.3 km/h 79% 0.0 mm
05:24 7.8 °C 4.3 °C 1012.5 hPa Sur 7 km/h 10 km/h 78.4% 0.0 mm
05:29 7.9 °C 4.3 °C 1012.4 hPa SSO 6.5 km/h 9.7 km/h 78% 0.0 mm
05:34 7.9 °C 4.3 °C 1012.4 hPa SO 6.5 km/h 11.1 km/h 78% 0.0 mm
05:39 7.9 °C 4.1 °C 1012.4 hPa SO 6.5 km/h 11.3 km/h 77% 0.0 mm
05:44 7.9 °C 4.1 °C 1012.4 hPa SO 6 km/h 9.5 km/h 77% 0.0 mm
05:49 7.9 °C 4 °C 1012.4 hPa SO 5.8 km/h 11.1 km/h 76.4% 0.0 mm
05:54 7.9 °C 3.9 °C 1012.4 hPa SO 6.2 km/h 11.3 km/h 76% 0.0 mm
05:59 7.9 °C 3.9 °C 1012.4 hPa SO 6.5 km/h 11.3 km/h 76% 0.0 mm
06:04 7.8 °C 3.9 °C 1012.4 hPa OSO 6.5 km/h 11.9 km/h 75.9% 0.0 mm
06:09 7.8 °C 3.7 °C 1012.5 hPa OSO 6.5 km/h 11.3 km/h 75% 0.0 mm
06:14 7.7 °C 3.6 °C 1012.5 hPa OSO 6.5 km/h 10 km/h 75% 0.0 mm
06:19 7.6 °C 3.5 °C 1012.5 hPa SO 6.5 km/h 9.7 km/h 75.3% 0.0 mm
06:24 7.6 °C 3.6 °C 1012.5 hPa SO 6 km/h 9.7 km/h 76% 0.0 mm
06:29 7.6 °C 3.6 °C 1012.4 hPa SO 5.8 km/h 8 km/h 76% 0.0 mm
06:34 7.6 °C 3.6 °C 1012.4 hPa SSO 5.2 km/h 8 km/h 76% 0.0 mm
06:39 7.6 °C 3.6 °C 1012.4 hPa SSO 5 km/h 9.3 km/h 76% 0.0 mm
06:44 7.6 °C 3.6 °C 1012.4 hPa SSO 5 km/h 9.7 km/h 76% 0.0 mm
06:49 7.7 °C 3.7 °C 1012.4 hPa SO 5 km/h 8 km/h 76% 0.0 mm
06:54 7.7 °C 3.7 °C 1012.5 hPa SO 5 km/h 11.1 km/h 76% 0.0 mm
06:59 7.7 °C 3.7 °C 1012.5 hPa SO 5 km/h 11.3 km/h 75.9% 0.0 mm
07:04 7.7 °C 3.6 °C 1012.5 hPa SO 5 km/h 9.7 km/h 75.4% 0.0 mm
07:09 7.6 °C 3.5 °C 1012.5 hPa SO 5 km/h 11.1 km/h 75% 0.0 mm
07:14 7.6 °C 3.5 °C 1012.5 hPa SO 5.5 km/h 11.3 km/h 75.1% 0.0 mm
07:19 7.6 °C 3.6 °C 1012.5 hPa SO 5.8 km/h 8 km/h 75.9% 0.0 mm
07:24 7.6 °C 3.6 °C 1012.5 hPa SO 4 km/h 6.4 km/h 76% 0.0 mm
07:29 7.4 °C 3.6 °C 1012.5 hPa SO 3.2 km/h 5.6 km/h 76.7% 0.0 mm
07:34 7.4 °C 3.6 °C 1012.5 hPa SO 2.5 km/h 4.8 km/h 77.3% 0.0 mm
07:39 7.3 °C 3.7 °C 1012.5 hPa SO 2.2 km/h 5.8 km/h 78% 0.0 mm
07:44 7.2 °C 3.6 °C 1012.5 hPa SO 2.9 km/h 7.4 km/h 78% 0.0 mm
07:49 7.2 °C 3.6 °C 1012.5 hPa OSO 3.2 km/h 8 km/h 78% 0.0 mm
07:54 7.2 °C 3.6 °C 1012.5 hPa OSO 3.7 km/h 8 km/h 78% 0.0 mm
07:59 7.1 °C 3.4 °C 1012.4 hPa Oeste 3.9 km/h 8.4 km/h 77.2% 0.0 mm
08:04 7 °C 3.2 °C 1012.4 hPa OSO 4.4 km/h 8 km/h 77% 0.0 mm
08:09 6.9 °C 3.3 °C 1012.4 hPa OSO 4.7 km/h 9.3 km/h 77.8% 0.0 mm
08:14 6.8 °C 3.3 °C 1012.4 hPa OSO 4.7 km/h 9.7 km/h 78% 0.0 mm
08:19 6.9 °C 3.3 °C 1012.4 hPa SO 4.7 km/h 9.7 km/h 78% 0.0 mm
08:24 6.9 °C 3.4 °C 1012.4 hPa SSO 4.9 km/h 8 km/h 78% 0.0 mm
08:29 7.1 °C 3.5 °C 1012.3 hPa Sur 5 km/h 8 km/h 77.8% 0.0 mm
08:34 7.2 °C 3.6 °C 1012.3 hPa SSE 4.8 km/h 9.3 km/h 78.2% 0.0 mm
08:39 7.1 °C 3.7 °C 1012.5 hPa SSE 4.7 km/h 10 km/h 79.3% 0.0 mm
08:44 6.8 °C 3.7 °C 1012.5 hPa SSE 5.9 km/h 11.1 km/h 80.4% 0.0 mm
08:49 6.8 °C 3.8 °C 1012.5 hPa SE 6.5 km/h 11.3 km/h 81.1% 0.0 mm
08:54 6.9 °C 3.9 °C 1012.5 hPa SSE 5.5 km/h 8 km/h 81.2% 0.0 mm
08:59 7.1 °C 4 °C 1012.5 hPa Sur 5 km/h 10 km/h 80.6% 0.0 mm
09:04 7.2 °C 4 °C 1012.5 hPa SO 5 km/h 9.7 km/h 80% 0.0 mm
09:09 7.3 °C 4 °C 1012.6 hPa SSO 5 km/h 13 km/h 79.2% 0.0 mm
09:14 7.5 °C 3.7 °C 1012.6 hPa SSO 6.3 km/h 13 km/h 76.8% 0.0 mm
09:19 7.6 °C 3.5 °C 1012.6 hPa SSO 6.9 km/h 13 km/h 75.3% 0.0 mm
09:24 7.7 °C 3.6 °C 1012.8 hPa SSO 7.9 km/h 13 km/h 75% 0.0 mm
09:29 7.7 °C 3.5 °C 1012.8 hPa SSO 8.4 km/h 13.7 km/h 74.5% 0.0 mm
09:34 7.7 °C 3.3 °C 1012.8 hPa SSO 8.4 km/h 14.5 km/h 74% 0.0 mm
09:39 7.8 °C 3.4 °C 1012.8 hPa SSO 8.4 km/h 14.5 km/h 74% 0.0 mm
09:44 7.8 °C 3.5 °C 1012.8 hPa SSO 8.4 km/h 13 km/h 74% 0.0 mm
09:49 8 °C 3.6 °C 1012.8 hPa SSO 8.4 km/h 12.9 km/h 74% 0.0 mm
09:54 8.1 °C 3.6 °C 1012.8 hPa SO 7.8 km/h 13 km/h 73.1% 0.0 mm
09:59 8.3 °C 3.6 °C 1012.8 hPa SO 7.6 km/h 13 km/h 72.2% 0.0 mm
10:04 8.5 °C 3.7 °C 1012.8 hPa SO 6.8 km/h 12.9 km/h 71.8% 0.0 mm
10:09 8.7 °C 3.7 °C 1012.8 hPa OSO 6.5 km/h 12.2 km/h 71% 0.0 mm
10:14 8.8 °C 3.6 °C 1012.8 hPa OSO 7.2 km/h 13 km/h 70.1% 0.0 mm
10:19 8.8 °C 3.6 °C 1012.8 hPa OSO 7.6 km/h 13 km/h 70% 0.0 mm
10:24 9 °C 3.8 °C 1012.8 hPa SO 8.1 km/h 12.9 km/h 70% 0.0 mm
10:29 9.2 °C 3.8 °C 1012.8 hPa SO 8.4 km/h 11.3 km/h 69.1% 0.0 mm
10:34 9.4 °C 3.7 °C 1012.8 hPa OSO 6.6 km/h 11.3 km/h 67.7% 0.0 mm
10:39 9.6 °C 3.8 °C 1012.8 hPa Oeste 5.8 km/h 11.3 km/h 67% 0.0 mm
10:44 9.7 °C 3.8 °C 1012.8 hPa OSO 5.8 km/h 9.7 km/h 66.4% 0.0 mm
10:49 9.9 °C 3.7 °C 1012.8 hPa OSO 5.8 km/h 9.3 km/h 65.4% 0.0 mm
10:54 10.1 °C 3.8 °C 1012.8 hPa OSO 5 km/h 9.7 km/h 65% 0.0 mm
10:59 10.1 °C 3.6 °C 1012.6 hPa SO 4.7 km/h 10 km/h 64% 0.0 mm
11:04 10.2 °C 3.7 °C 1012.6 hPa SO 5.5 km/h 10 km/h 64% 0.0 mm
11:09 10.3 °C 3.7 °C 1012.6 hPa OSO 5.8 km/h 10.3 km/h 63.4% 0.0 mm
11:14 10.5 °C 3.7 °C 1012.4 hPa OSO 5.2 km/h 11.3 km/h 62.8% 0.0 mm
11:19 10.7 °C 3.7 °C 1012.4 hPa Oeste 5 km/h 11.3 km/h 62% 0.0 mm
11:24 10.8 °C 3.6 °C 1012.4 hPa OSO 5 km/h 9.7 km/h 61.1% 0.0 mm
11:29 11 °C 3.8 °C 1012.2 hPa OSO 5 km/h 9.7 km/h 61% 0.0 mm
11:34 11.3 °C 3.8 °C 1012.2 hPa SO 4.2 km/h 9.3 km/h 60.2% 0.0 mm
11:39 11.6 °C 3.7 °C 1012.2 hPa SSE 3.9 km/h 9.7 km/h 58.4% 0.0 mm
11:44 11.9 °C 3.7 °C 1012.0 hPa SE 4.4 km/h 8 km/h 57% 0.0 mm
11:49 12.2 °C 3.8 °C 1012.0 hPa Oeste 4.7 km/h 9.3 km/h 56.4% 0.0 mm
11:54 12.3 °C 3.8 °C 1012.0 hPa ONO 3.6 km/h 9.7 km/h 56.3% 0.0 mm
11:59 12.4 °C 3.6 °C 1011.7 hPa ONO 3.2 km/h 8 km/h 54.8% 0.0 mm
12:04 12.5 °C 3.6 °C 1011.7 hPa NO 3.2 km/h 9.3 km/h 54.6% 0.0 mm
12:09 12.7 °C 3.6 °C 1011.7 hPa ONO 3.2 km/h 9.7 km/h 54.1% 0.0 mm
12:14 12.8 °C 3.8 °C 1011.4 hPa ONO 3 km/h 9.7 km/h 54.2% 0.0 mm
12:19 13.2 °C 3.9 °C 1011.4 hPa Oeste 2.9 km/h 5.8 km/h 53.4% 0.0 mm
12:24 13.5 °C 3.8 °C 1011.4 hPa SSO 2.9 km/h 7.6 km/h 51.9% 0.0 mm
12:29 13.4 °C 3.8 °C 1011.1 hPa SSO 2.9 km/h 8 km/h 52% 0.0 mm
12:34 13.5 °C 3.8 °C 1011.1 hPa SO 3.6 km/h 7.6 km/h 52% 0.0 mm
12:39 13.6 °C 3.9 °C 1011.1 hPa SSO 3.9 km/h 8 km/h 52% 0.0 mm
12:44 13.9 °C 3.9 °C 1010.9 hPa SSE 3.2 km/h 9.3 km/h 50.9% 0.0 mm
12:49 14.2 °C 4 °C 1010.9 hPa OSO 2.9 km/h 9.7 km/h 50.6% 0.0 mm
12:54 14.3 °C 4.2 °C 1010.9 hPa Sur 3.1 km/h 11.3 km/h 50.6% 0.0 mm
12:59 14.3 °C 4.2 °C 1010.7 hPa NO 3.2 km/h 11.3 km/h 50.7% 0.0 mm
13:04 14.2 °C 4.5 °C 1010.7 hPa Sur 3.2 km/h 8 km/h 51.8% 0.0 mm
13:09 14.3 °C 4.4 °C 1010.7 hPa ESE 3.2 km/h 8 km/h 51.5% 0.0 mm
13:14 14.4 °C 4.6 °C 1010.4 hPa ESE 3.2 km/h 8 km/h 51.9% 0.0 mm
13:19 14.6 °C 4.6 °C 1010.4 hPa OSO 3.2 km/h 8 km/h 51% 0.0 mm
13:24 14.7 °C 4.7 °C 1010.4 hPa SO 3 km/h 8 km/h 51% 0.0 mm
13:29 14.7 °C 4.7 °C 1010.2 hPa SO 2.9 km/h 8.4 km/h 51% 0.0 mm
13:34 14.7 °C 4.8 °C 1010.2 hPa Sur 4.1 km/h 8 km/h 51.3% 0.0 mm
13:39 14.8 °C 4.9 °C 1010.2 hPa SO 4.7 km/h 8 km/h 51.6% 0.0 mm
13:44 14.8 °C 5.1 °C 1009.9 hPa SSO 3.6 km/h 6.4 km/h 52% 0.0 mm
13:49 15 °C 5.2 °C 1009.9 hPa SSO 3.2 km/h 6.4 km/h 52% 0.0 mm
13:54 15.1 °C 5.3 °C 1009.9 hPa SSE 2.5 km/h 5.6 km/h 51.8% 0.0 mm
13:59 15.2 °C 5.3 °C 1009.7 hPa North 2.2 km/h 7.6 km/h 51.7% 0.0 mm
14:04 15.3 °C 5.6 °C 1009.7 hPa NNO 2.9 km/h 8 km/h 52.4% 0.0 mm
14:09 15.3 °C 5.8 °C 1009.7 hPa NNO 3.2 km/h 6.4 km/h 53% 0.0 mm
14:14 15.4 °C 5.9 °C 1009.5 hPa North 2.5 km/h 9.3 km/h 53% 0.0 mm
14:19 15.4 °C 5.9 °C 1009.5 hPa NNE 2.2 km/h 9.7 km/h 53% 0.0 mm
14:24 15.3 °C 6 °C 1009.5 hPa NE 3.3 km/h 8 km/h 53.9% 0.0 mm
14:29 15.3 °C 6 °C 1009.3 hPa NNE 3.9 km/h 7.6 km/h 54% 0.0 mm
14:34 15.3 °C 6.1 °C 1009.3 hPa North 3.9 km/h 8 km/h 54% 0.0 mm
14:39 15.4 °C 6.1 °C 1009.3 hPa NO 3.9 km/h 9.3 km/h 54% 0.0 mm
14:44 15.6 °C 6.3 °C 1008.9 hPa NNE 3.2 km/h 9.7 km/h 54.1% 0.0 mm
14:49 15.7 °C 6.4 °C 1008.9 hPa NO 2.9 km/h 8 km/h 54% 0.0 mm
14:54 15.7 °C 6.4 °C 1008.9 hPa North 3.1 km/h 8 km/h 54% 0.0 mm
14:59 15.9 °C 6.6 °C 1008.8 hPa NNE 3.2 km/h 9.3 km/h 54% 0.0 mm
15:04 15.9 °C 6.6 °C 1008.8 hPa NE 4.3 km/h 9.7 km/h 54% 0.0 mm
15:09 15.9 °C 6.8 °C 1008.8 hPa NNE 4.7 km/h 9.7 km/h 54.8% 0.0 mm
15:14 16 °C 6.9 °C 1008.5 hPa NE 4.9 km/h 10 km/h 55% 0.0 mm
15:19 16 °C 7 °C 1008.5 hPa North 5 km/h 9.7 km/h 55.1% 0.0 mm
15:24 16.1 °C 7.3 °C 1008.5 hPa NE 5 km/h 10 km/h 55.8% 0.0 mm
15:29 16.2 °C 7.3 °C 1008.4 hPa NE 5 km/h 13 km/h 55.8% 0.0 mm
15:34 16.1 °C 7.3 °C 1008.4 hPa NNE 6 km/h 14.8 km/h 55.9% 0.0 mm
15:39 16 °C 7.2 °C 1008.4 hPa NNE 6.5 km/h 14.5 km/h 56% 0.0 mm
15:44 16.1 °C 7.5 °C 1008.4 hPa NE 6.5 km/h 11.3 km/h 56.8% 0.0 mm
15:49 16.2 °C 7.4 °C 1008.4 hPa Este 6.5 km/h 9.7 km/h 56% 0.0 mm
15:54 16.3 °C 7.2 °C 1008.4 hPa Sur 5.3 km/h 8.7 km/h 55% 0.0 mm
15:59 16.3 °C 6.4 °C 1008.4 hPa SE 4.7 km/h 16.7 km/h 51.8% 0.0 mm
16:04 16.2 °C 6.1 °C 1008.4 hPa SE 6.3 km/h 16.1 km/h 51% 0.0 mm
16:09 16.2 °C 6.3 °C 1008.4 hPa SE 6.9 km/h 16.1 km/h 51.8% 0.0 mm
16:14 16.2 °C 6.4 °C 1008.3 hPa SSE 7.4 km/h 17.2 km/h 52.4% 0.0 mm
16:19 16.1 °C 6.5 °C 1008.3 hPa SSE 7.6 km/h 20.4 km/h 53% 0.0 mm
16:24 15.9 °C 6.4 °C 1008.4 hPa SSE 9.5 km/h 20.9 km/h 53.1% 0.0 mm
16:29 15.9 °C 6.3 °C 1008.4 hPa SE 10.3 km/h 19.3 km/h 53% 0.0 mm
16:34 15.8 °C 6.2 °C 1008.4 hPa SE 10.1 km/h 19.3 km/h 53% 0.0 mm
16:39 15.8 °C 6.4 °C 1008.4 hPa SE 10 km/h 17.7 km/h 53.5% 0.0 mm
16:44 15.8 °C 6.5 °C 1008.4 hPa SE 8.9 km/h 14.8 km/h 54% 0.0 mm
16:49 15.8 °C 6.6 °C 1008.4 hPa SE 8.4 km/h 16.7 km/h 54.4% 0.0 mm
16:54 15.7 °C 6.7 °C 1008.4 hPa SE 8.6 km/h 16.1 km/h 55% 0.0 mm
16:59 15.7 °C 6.7 °C 1008.3 hPa SE 8.7 km/h 14.5 km/h 55.1% 0.0 mm
17:04 15.6 °C 6.8 °C 1008.3 hPa SE 8.7 km/h 13.7 km/h 56% 0.0 mm
17:09 15.6 °C 7 °C 1008.4 hPa SSE 8.7 km/h 14.5 km/h 56.8% 0.0 mm
17:14 15.5 °C 7.2 °C 1008.4 hPa SE 7.9 km/h 13 km/h 57.7% 0.0 mm
17:19 15.4 °C 7.4 °C 1008.4 hPa SE 7.6 km/h 13 km/h 58.8% 0.0 mm
17:24 15.4 °C 7.6 °C 1008.4 hPa SE 7.1 km/h 11.9 km/h 59.7% 0.0 mm
17:29 15.3 °C 7.7 °C 1008.4 hPa SSE 6.9 km/h 20.4 km/h 60.8% 0.0 mm
17:34 15.2 °C 7.8 °C 1008.4 hPa SE 7.9 km/h 20.9 km/h 61.6% 0.0 mm
17:39 15.1 °C 7.9 °C 1008.5 hPa SSE 8.4 km/h 14.8 km/h 62.4% 0.0 mm
17:44 14.9 °C 7.9 °C 1008.5 hPa SE 8.6 km/h 14.8 km/h 63% 0.0 mm
17:49 14.9 °C 8.1 °C 1008.5 hPa SE 8.7 km/h 14.5 km/h 63.7% 0.0 mm
17:54 14.9 °C 8.2 °C 1008.5 hPa SE 7.5 km/h 9.7 km/h 64% 0.0 mm
17:59 14.8 °C 8.1 °C 1008.5 hPa SSE 6.9 km/h 9.5 km/h 64% 0.0 mm
18:04 14.8 °C 8.1 °C 1008.5 hPa SSE 5.5 km/h 11.1 km/h 64% 0.0 mm
18:09 14.8 °C 8 °C 1008.5 hPa SSE 5 km/h 13 km/h 64.1% 0.0 mm
18:14 14.7 °C 8.2 °C 1008.5 hPa Sur 6 km/h 12.9 km/h 64.9% 0.0 mm
18:19 14.7 °C 8.2 °C 1008.5 hPa Sur 6.5 km/h 11.3 km/h 65% 0.0 mm
18:24 14.7 °C 8.2 °C 1008.5 hPa SSO 6 km/h 13 km/h 65% 0.0 mm
18:29 14.7 °C 8.2 °C 1008.5 hPa SO 5.8 km/h 13 km/h 65% 0.0 mm
18:34 14.7 °C 8.3 °C 1008.5 hPa SO 5.8 km/h 12.2 km/h 65.8% 0.0 mm
18:39 14.6 °C 8.4 °C 1008.6 hPa SO 5.8 km/h 13 km/h 66.3% 0.0 mm
18:44 14.6 °C 8.6 °C 1008.6 hPa SO 5.8 km/h 12.9 km/h 67% 0.0 mm
18:49 14.5 °C 8.7 °C 1008.6 hPa SO 5.8 km/h 9.7 km/h 67.9% 0.0 mm
18:54 14.4 °C 8.7 °C 1008.6 hPa SO 5.8 km/h 9.7 km/h 68.4% 0.0 mm
18:59 14.4 °C 8.8 °C 1008.5 hPa SSO 5.8 km/h 11.1 km/h 69.3% 0.0 mm
19:04 14.3 °C 8.9 °C 1008.5 hPa SSO 6.2 km/h 11.3 km/h 70.2% 0.0 mm
19:09 14.2 °C 9 °C 1008.6 hPa SO 6.5 km/h 8.4 km/h 71% 0.0 mm
19:14 14.2 °C 9.3 °C 1008.6 hPa SO 5.2 km/h 8 km/h 72.5% 0.0 mm
19:19 14.1 °C 9.4 °C 1008.6 hPa SO 4.6 km/h 6.4 km/h 73.5% 0.3 mm
19:24 14 °C 9.3 °C 1008.6 hPa SO 1.4 km/h   73.2% 0.3 mm
19:29 13.9 °C 9.1 °C 1008.6 hPa Calm     73% 0.3 mm
19:34 13.8 °C 9.2 °C 1008.6 hPa Calm     73.5% 0.3 mm
19:39 13.8 °C 9.4 °C 1008.6 hPa Calm     75% 0.3 mm
19:44 13.7 °C 9.3 °C 1008.6 hPa Calm   6.4 km/h 74.7% 0.3 mm
19:49 13.7 °C 9.2 °C 1008.6 hPa Calm   8 km/h 74.5% 0.3 mm
19:54 13.6 °C 9.3 °C 1008.8 hPa ONO 2 km/h 8 km/h 75% 0.3 mm
19:59 13.6 °C 9.2 °C 1008.8 hPa ONO 2.9 km/h 3.2 km/h 75% 0.3 mm
20:04 13.4 °C 9.1 °C 1008.8 hPa ONO 0.8 km/h 5 km/h 75% 0.3 mm
20:09 13.5 °C 9.5 °C 1008.8 hPa Calm   8.4 km/h 76.8% 0.3 mm
20:14 13.4 °C 9.5 °C 1008.7 hPa ESE 2.6 km/h 8 km/h 77.3% 0.3 mm
20:19 13.4 °C 9.7 °C 1008.7 hPa ESE 3.9 km/h 8 km/h 78% 0.3 mm
20:24 13.3 °C 9.6 °C 1008.8 hPa ESE 3.9 km/h 8.4 km/h 78.5% 0.0 mm
20:29 13.2 °C 9.7 °C 1008.8 hPa ESE 3.9 km/h 9.3 km/h 79.2% 0.0 mm
20:34 13.1 °C 9.7 °C 1008.8 hPa ESE 5.2 km/h 9.7 km/h 80.1% 0.0 mm
20:39 13 °C 9.8 °C 1008.9 hPa ESE 5.8 km/h 9.3 km/h 81% 0.0 mm
20:44 12.9 °C 9.7 °C 1008.9 hPa ESE 5.2 km/h 10 km/h 81% 0.0 mm
20:49 12.9 °C 9.7 °C 1008.9 hPa ESE 5 km/h 9.7 km/h 81% 0.0 mm
20:54 12.9 °C 9.7 °C 1008.9 hPa Este 5 km/h 9.7 km/h 81% 0.0 mm
20:59 12.8 °C 9.6 °C 1008.9 hPa Este 5 km/h 8 km/h 81% 0.0 mm
21:04 12.8 °C 9.6 °C 1008.9 hPa Este 3.7 km/h 8 km/h 81% 0.0 mm
21:09 12.8 °C 9.6 °C 1009.0 hPa Este 3.2 km/h 4.8 km/h 81.2% 0.0 mm
21:14 12.8 °C 9.8 °C 1009.0 hPa NE 1 km/h 5.6 km/h 82% 0.0 mm
21:19 12.7 °C 9.7 °C 1009.0 hPa Calm   4.8 km/h 82% 0.0 mm
21:24 12.6 °C 9.7 °C 1009.0 hPa Calm   3.2 km/h 82.3% 0.0 mm
21:29 12.6 °C 9.8 °C 1009.0 hPa Calm     83% 0.0 mm
21:34 12.5 °C 9.8 °C 1009.0 hPa Calm     83.5% 0.0 mm
21:39 12.5 °C 9.9 °C 1009.0 hPa Calm     84% 0.0 mm
21:44 12.5 °C 9.9 °C 1008.9 hPa Calm   5 km/h 84% 0.0 mm
21:49 12.5 °C 9.9 °C 1008.9 hPa Calm   7.4 km/h 84% 0.0 mm
21:54 12.5 °C 9.9 °C 1009.2 hPa ONO 2.2 km/h 8 km/h 84% 0.0 mm
21:59 12.4 °C 9.8 °C 1009.2 hPa NO 3.2 km/h 8 km/h 84% 0.0 mm
22:04 12.4 °C 9.8 °C 1009.2 hPa NO 3.7 km/h 6.4 km/h 84% 0.0 mm
22:09 12.4 °C 9.8 °C 1009.2 hPa NO 3.9 km/h 6.4 km/h 84.4% 0.0 mm
22:14 12.3 °C 9.9 °C 1009.0 hPa NO 3.2 km/h 4.8 km/h 85% 0.0 mm
22:19 12.3 °C 9.8 °C 1009.0 hPa NO 2.9 km/h 5.8 km/h 85% 0.0 mm
22:24 12.3 °C 9.8 °C 1009.1 hPa OSO 2.9 km/h 7.4 km/h 85% 0.0 mm
22:29 12.3 °C 9.8 °C 1009.1 hPa OSO 2.9 km/h 8 km/h 85% 0.0 mm
22:34 12.3 °C 9.8 °C 1009.1 hPa SSO 3.6 km/h 8 km/h 85% 0.0 mm
22:39 12.3 °C 9.8 °C 1009.1 hPa ESE 3.9 km/h 8 km/h 85% 0.0 mm
22:44 12.2 °C 9.8 °C 1009.1 hPa ESE 3.9 km/h 8 km/h 85.1% 0.0 mm
22:49 12.1 °C 9.8 °C 1009.1 hPa ESE 3.9 km/h 8 km/h 86% 0.0 mm
22:54 12 °C 9.8 °C 1009.1 hPa SE 3.9 km/h 8 km/h 86.6% 0.0 mm
22:59 12 °C 9.9 °C 1009.1 hPa SE 3.9 km/h 8 km/h 87% 0.0 mm
23:04 11.9 °C 9.8 °C 1009.1 hPa SSE 4.4 km/h 9.3 km/h 87% 0.0 mm
23:09 11.9 °C 9.8 °C 1009.1 hPa SSE 4.7 km/h 9.7 km/h 87% 0.0 mm
23:14 11.9 °C 9.8 °C 1009.1 hPa Sur 5.4 km/h 8.4 km/h 87.1% 0.0 mm
23:19 11.8 °C 9.9 °C 1009.1 hPa SSO 5.8 km/h 8 km/h 88% 0.0 mm
23:24 11.9 °C 10 °C 1009.1 hPa SSO 5.2 km/h 8 km/h 88% 0.0 mm
23:29 11.9 °C 10 °C 1008.9 hPa Sur 5 km/h 8 km/h 88% 0.0 mm
23:34 11.9 °C 10 °C 1008.9 hPa Sur 3.8 km/h 5 km/h 88% 0.0 mm
23:39 11.9 °C 9.9 °C 1009.0 hPa SSO 3.2 km/h 7.4 km/h 87.4% 0.0 mm
23:44 11.8 °C 9.8 °C 1009.0 hPa ONO 3 km/h 8 km/h 87.4% 0.0 mm
23:49 11.7 °C 9.8 °C 1009.0 hPa ONO 2.9 km/h 4.8 km/h 88% 0.0 mm
23:54 11.6 °C 9.7 °C 1009.0 hPa ONO 0.9 km/h 1.6 km/h 88% 0.0 mm
23:59 11.5 °C 9.6 °C 1008.9 hPa Calm     88% 0.0 mm
Murcia-Puente Tocinos, Espa?a
Compliments of Weather Underground - 3 mb

La estación de MeteoMurcia.com, publica sus datos en los siguientes proyectos:

Weather Underground PWS IMURCIAP2 Meteoclimatic www.awekas.at

W3Counter
Web Analytics